Wunstorf, Germany

9:59 PM CET on February 19, 2017 (GMT +0100)
Leinechaussee | | Change Station

Elev 144 ft 52.45 °N, 9.46 °E | Updated 3 minutes ago

Overcast
Overcast
41.0 °F
Feels Like 41 °F
N
2.5
Wind Variable Wind from WSW
Gusts 5.6 mph

Today
High -- | Low -- °F
--% Chance of Precip.
Yesterday
High -- | Low -- °F
Precip. -- in
Pressure 30.09 in
Visibility 2.5 miles
Clouds Mostly Cloudy 500 ft
Windchill 41 °F
Dew Point 41 °F
Humidity 100%
Rainfall 0.02 in
Snow Depth Not available.
7:29 AM 5:43 PM
Last Quarter, 40% visible
METAR EDDV 192050Z 26008KT 230V290 4000 BR BKN005 05/05 Q1019 NOSIG
Pressure 30.09 in
Visibility 2.5 miles
Clouds Mostly Cloudy 500 ft
Windchill 41 °F
Dew Point 41 °F
Humidity 100%
Rainfall 0.02 in
Snow Depth Not available.
7:29 AM 5:43 PM
Last Quarter, 40% visible
METAR EDDV 192050Z 26008KT 230V290 4000 BR BKN005 05/05 Q1019 NOSIG

Get Your Daily Forecast Email!

Thanks for signing up!

Be on the lookout for a verification email in your inbox.

You'll start receiving the daily forecast at 8 AM.

×

10-Day Weather Forecast

×

Almanac

Astronomy

Feb. 19, 2017 Rise Set
Actual Time
Civil Twilight
Nautical Twilight
Astronomical Twilight
Moon
Length of Visible Light
Length of Day
Tomorrow will be .
, % of the Moon is Illuminated

Today's Extremes

Country Highs Country Lows

Community

WunderPhotos

Upload Photos

1,962,540 photos uploaded!

WunderBlog® & News

Nearby

Air Quality

  Air Quality AQ Index Pollutant
Not available.

Snow Depth

Station Depth Elevation

Earthquake Activity

City Distance Mag. Time & Date
Minimum magnitude displayed is 2.5.

Coastal Water Temperatures

Place Temperature

Stations

Nearby Weather Stations

Station Location Temp. Windchill Dew Point Humidity Wind Precip. Elev Updated Type